sensor_id;sensor_type;location;lat;lon;timestamp;P1;durP1;ratioP1;P2;durP2;ratioP2
22287;SDS011;11312;51.464;6.968;2024-03-08T00:00:58;7.70;;;2.88;;
22287;SDS011;11312;51.464;6.968;2024-03-08T00:03:24;7.63;;;3.38;;
22287;SDS011;11312;51.464;6.968;2024-03-08T00:05:49;8.30;;;3.30;;
22287;SDS011;11312;51.464;6.968;2024-03-08T00:08:15;7.32;;;3.03;;
22287;SDS011;11312;51.464;6.968;2024-03-08T00:10:40;7.18;;;2.92;;
22287;SDS011;11312;51.464;6.968;2024-03-08T00:13:06;7.32;;;3.40;;
22287;SDS011;11312;51.464;6.968;2024-03-08T00:15:32;8.15;;;3.47;;
22287;SDS011;11312;51.464;6.968;2024-03-08T00:17:57;8.98;;;3.58;;
22287;SDS011;11312;51.464;6.968;2024-03-08T00:20:23;8.25;;;3.20;;
22287;SDS011;11312;51.464;6.968;2024-03-08T00:22:48;6.95;;;2.85;;
22287;SDS011;11312;51.464;6.968;2024-03-08T00:25:14;6.20;;;2.75;;
22287;SDS011;11312;51.464;6.968;2024-03-08T00:27:40;9.57;;;3.25;;
22287;SDS011;11312;51.464;6.968;2024-03-08T00:30:06;7.07;;;3.25;;
22287;SDS011;11312;51.464;6.968;2024-03-08T00:32:33;5.97;;;2.67;;
22287;SDS011;11312;51.464;6.968;2024-03-08T00:34:58;9.07;;;3.15;;
22287;SDS011;11312;51.464;6.968;2024-03-08T00:37:24;6.72;;;2.65;;
22287;SDS011;11312;51.464;6.968;2024-03-08T00:39:50;8.77;;;3.63;;
22287;SDS011;11312;51.464;6.968;2024-03-08T00:42:19;7.70;;;3.10;;
22287;SDS011;11312;51.464;6.968;2024-03-08T00:44:46;8.05;;;2.95;;
22287;SDS011;11312;51.464;6.968;2024-03-08T00:47:13;8.70;;;4.07;;
22287;SDS011;11312;51.464;6.968;2024-03-08T00:49:40;6.10;;;2.75;;
22287;SDS011;11312;51.464;6.968;2024-03-08T00:52:07;7.13;;;2.90;;
22287;SDS011;11312;51.464;6.968;2024-03-08T00:54:33;8.57;;;3.53;;
22287;SDS011;11312;51.464;6.968;2024-03-08T00:56:59;9.27;;;2.97;;
22287;SDS011;11312;51.464;6.968;2024-03-08T00:59:28;9.50;;;4.07;;
22287;SDS011;11312;51.464;6.968;2024-03-08T01:01:54;10.48;;;4.63;;
22287;SDS011;11312;51.464;6.968;2024-03-08T01:04:20;8.23;;;3.47;;
22287;SDS011;11312;51.464;6.968;2024-03-08T01:06:46;7.68;;;3.28;;
22287;SDS011;11312;51.464;6.968;2024-03-08T01:09:12;9.23;;;3.97;;
22287;SDS011;11312;51.464;6.968;2024-03-08T01:11:38;7.70;;;2.88;;
22287;SDS011;11312;51.464;6.968;2024-03-08T01:14:03;8.88;;;3.70;;
22287;SDS011;11312;51.464;6.968;2024-03-08T01:16:29;9.18;;;3.70;;
22287;SDS011;11312;51.464;6.968;2024-03-08T01:18:55;9.38;;;3.47;;
22287;SDS011;11312;51.464;6.968;2024-03-08T01:21:20;10.93;;;5.15;;
22287;SDS011;11312;51.464;6.968;2024-03-08T01:23:47;6.85;;;2.83;;
22287;SDS011;11312;51.464;6.968;2024-03-08T01:26:12;7.85;;;3.13;;
22287;SDS011;11312;51.464;6.968;2024-03-08T01:28:40;9.18;;;3.72;;
22287;SDS011;11312;51.464;6.968;2024-03-08T01:31:05;8.32;;;3.67;;
22287;SDS011;11312;51.464;6.968;2024-03-08T01:33:31;9.00;;;3.35;;
22287;SDS011;11312;51.464;6.968;2024-03-08T01:35:56;6.50;;;2.60;;
22287;SDS011;11312;51.464;6.968;2024-03-08T01:38:23;7.53;;;3.00;;
22287;SDS011;11312;51.464;6.968;2024-03-08T01:40:49;7.25;;;2.88;;
22287;SDS011;11312;51.464;6.968;2024-03-08T01:43:25;13.30;;;4.78;;
22287;SDS011;11312;51.464;6.968;2024-03-08T01:45:54;10.30;;;4.85;;
22287;SDS011;11312;51.464;6.968;2024-03-08T01:48:22;10.93;;;4.38;;
22287;SDS011;11312;51.464;6.968;2024-03-08T01:50:49;8.13;;;2.95;;
22287;SDS011;11312;51.464;6.968;2024-03-08T01:53:15;7.53;;;3.13;;
22287;SDS011;11312;51.464;6.968;2024-03-08T01:55:43;9.00;;;3.38;;
22287;SDS011;11312;51.464;6.968;2024-03-08T01:58:13;10.13;;;3.53;;
22287;SDS011;11312;51.464;6.968;2024-03-08T02:00:42;6.85;;;2.80;;
22287;SDS011;11312;51.464;6.968;2024-03-08T02:03:09;8.68;;;3.83;;
22287;SDS011;11312;51.464;6.968;2024-03-08T02:05:36;8.82;;;3.40;;
22287;SDS011;11312;51.464;6.968;2024-03-08T02:08:03;5.90;;;2.33;;
22287;SDS011;11312;51.464;6.968;2024-03-08T02:10:32;5.38;;;2.22;;
22287;SDS011;11312;51.464;6.968;2024-03-08T02:12:58;8.10;;;3.33;;
22287;SDS011;11312;51.464;6.968;2024-03-08T02:15:24;10.40;;;3.80;;
22287;SDS011;11312;51.464;6.968;2024-03-08T02:17:51;7.38;;;3.05;;
22287;SDS011;11312;51.464;6.968;2024-03-08T02:20:18;7.20;;;2.88;;
22287;SDS011;11312;51.464;6.968;2024-03-08T02:22:44;8.00;;;2.90;;
22287;SDS011;11312;51.464;6.968;2024-03-08T02:25:11;8.52;;;3.50;;
22287;SDS011;11312;51.464;6.968;2024-03-08T02:27:36;9.85;;;4.28;;
22287;SDS011;11312;51.464;6.968;2024-03-08T02:30:03;8.95;;;3.55;;
22287;SDS011;11312;51.464;6.968;2024-03-08T02:32:30;7.65;;;3.33;;
22287;SDS011;11312;51.464;6.968;2024-03-08T02:34:57;8.05;;;3.30;;
22287;SDS011;11312;51.464;6.968;2024-03-08T02:37:24;7.65;;;3.22;;
22287;SDS011;11312;51.464;6.968;2024-03-08T02:39:50;8.07;;;3.35;;
22287;SDS011;11312;51.464;6.968;2024-03-08T02:42:16;7.53;;;3.20;;
22287;SDS011;11312;51.464;6.968;2024-03-08T02:44:44;7.43;;;2.95;;
22287;SDS011;11312;51.464;6.968;2024-03-08T02:47:09;7.95;;;3.47;;
22287;SDS011;11312;51.464;6.968;2024-03-08T02:49:37;7.15;;;3.13;;
22287;SDS011;11312;51.464;6.968;2024-03-08T02:52:03;9.45;;;3.03;;
22287;SDS011;11312;51.464;6.968;2024-03-08T02:54:30;7.20;;;2.88;;
22287;SDS011;11312;51.464;6.968;2024-03-08T02:56:55;9.38;;;3.85;;
22287;SDS011;11312;51.464;6.968;2024-03-08T02:59:21;7.07;;;2.75;;
22287;SDS011;11312;51.464;6.968;2024-03-08T03:01:47;9.57;;;3.83;;
22287;SDS011;11312;51.464;6.968;2024-03-08T03:04:12;11.95;;;5.15;;
22287;SDS011;11312;51.464;6.968;2024-03-08T03:06:38;9.85;;;3.88;;
22287;SDS011;11312;51.464;6.968;2024-03-08T03:09:03;9.60;;;3.75;;
22287;SDS011;11312;51.464;6.968;2024-03-08T03:11:31;10.18;;;3.67;;
22287;SDS011;11312;51.464;6.968;2024-03-08T03:13:57;9.27;;;3.72;;
22287;SDS011;11312;51.464;6.968;2024-03-08T03:16:22;8.57;;;3.33;;
22287;SDS011;11312;51.464;6.968;2024-03-08T03:18:49;10.13;;;4.18;;
22287;SDS011;11312;51.464;6.968;2024-03-08T03:21:14;6.60;;;2.72;;
22287;SDS011;11312;51.464;6.968;2024-03-08T03:23:40;9.75;;;3.97;;
22287;SDS011;11312;51.464;6.968;2024-03-08T03:26:07;7.70;;;3.33;;
22287;SDS011;11312;51.464;6.968;2024-03-08T03:28:33;8.23;;;4.28;;
22287;SDS011;11312;51.464;6.968;2024-03-08T03:30:59;7.20;;;3.03;;
22287;SDS011;11312;51.464;6.968;2024-03-08T03:33:25;9.13;;;3.47;;
22287;SDS011;11312;51.464;6.968;2024-03-08T03:35:51;9.05;;;3.67;;
22287;SDS011;11312;51.464;6.968;2024-03-08T03:38:19;9.40;;;4.03;;
22287;SDS011;11312;51.464;6.968;2024-03-08T03:40:48;10.05;;;4.20;;
22287;SDS011;11312;51.464;6.968;2024-03-08T03:43:18;10.15;;;3.38;;
22287;SDS011;11312;51.464;6.968;2024-03-08T03:45:43;8.88;;;3.97;;
22287;SDS011;11312;51.464;6.968;2024-03-08T03:48:09;11.98;;;4.72;;
22287;SDS011;11312;51.464;6.968;2024-03-08T03:50:35;10.77;;;3.95;;
22287;SDS011;11312;51.464;6.968;2024-03-08T03:53:01;7.40;;;2.92;;
22287;SDS011;11312;51.464;6.968;2024-03-08T03:55:27;8.45;;;3.42;;
22287;SDS011;11312;51.464;6.968;2024-03-08T03:57:53;9.55;;;4.03;;
22287;SDS011;11312;51.464;6.968;2024-03-08T04:00:19;9.43;;;3.83;;
22287;SDS011;11312;51.464;6.968;2024-03-08T04:02:45;8.73;;;3.53;;
22287;SDS011;11312;51.464;6.968;2024-03-08T04:05:12;9.85;;;4.50;;
22287;SDS011;11312;51.464;6.968;2024-03-08T04:07:38;12.60;;;4.57;;
22287;SDS011;11312;51.464;6.968;2024-03-08T04:10:04;8.38;;;3.63;;
22287;SDS011;11312;51.464;6.968;2024-03-08T04:12:35;7.38;;;3.33;;
22287;SDS011;11312;51.464;6.968;2024-03-08T04:15:01;10.18;;;4.07;;
22287;SDS011;11312;51.464;6.968;2024-03-08T04:17:27;8.80;;;3.90;;
22287;SDS011;11312;51.464;6.968;2024-03-08T04:19:53;8.65;;;3.45;;
22287;SDS011;11312;51.464;6.968;2024-03-08T04:22:18;10.07;;;4.38;;
22287;SDS011;11312;51.464;6.968;2024-03-08T04:24:44;9.38;;;4.00;;
22287;SDS011;11312;51.464;6.968;2024-03-08T04:27:10;10.60;;;4.50;;
22287;SDS011;11312;51.464;6.968;2024-03-08T04:29:36;5.82;;;2.38;;
22287;SDS011;11312;51.464;6.968;2024-03-08T04:32:03;8.25;;;3.63;;
22287;SDS011;11312;51.464;6.968;2024-03-08T04:34:30;7.43;;;3.00;;
22287;SDS011;11312;51.464;6.968;2024-03-08T04:36:59;11.30;;;4.57;;
22287;SDS011;11312;51.464;6.968;2024-03-08T04:39:25;9.63;;;4.28;;
22287;SDS011;11312;51.464;6.968;2024-03-08T04:41:55;8.05;;;3.60;;
22287;SDS011;11312;51.464;6.968;2024-03-08T04:44:25;8.52;;;3.53;;
22287;SDS011;11312;51.464;6.968;2024-03-08T04:46:50;8.80;;;3.92;;
22287;SDS011;11312;51.464;6.968;2024-03-08T04:49:16;10.05;;;3.88;;
22287;SDS011;11312;51.464;6.968;2024-03-08T04:51:42;11.32;;;5.57;;
22287;SDS011;11312;51.464;6.968;2024-03-08T04:54:07;7.30;;;3.33;;
22287;SDS011;11312;51.464;6.968;2024-03-08T04:56:33;11.70;;;4.32;;
22287;SDS011;11312;51.464;6.968;2024-03-08T04:58:58;8.75;;;3.83;;
22287;SDS011;11312;51.464;6.968;2024-03-08T05:01:24;10.52;;;4.82;;
22287;SDS011;11312;51.464;6.968;2024-03-08T05:03:50;9.02;;;3.45;;
22287;SDS011;11312;51.464;6.968;2024-03-08T05:06:16;8.70;;;3.70;;
22287;SDS011;11312;51.464;6.968;2024-03-08T05:08:42;8.30;;;3.42;;
22287;SDS011;11312;51.464;6.968;2024-03-08T05:11:07;7.82;;;3.65;;
22287;SDS011;11312;51.464;6.968;2024-03-08T05:13:33;8.38;;;3.47;;
22287;SDS011;11312;51.464;6.968;2024-03-08T05:15:59;9.00;;;4.32;;
22287;SDS011;11312;51.464;6.968;2024-03-08T05:18:25;8.25;;;3.47;;
22287;SDS011;11312;51.464;6.968;2024-03-08T05:20:51;8.80;;;3.90;;
22287;SDS011;11312;51.464;6.968;2024-03-08T05:23:17;8.95;;;4.40;;
22287;SDS011;11312;51.464;6.968;2024-03-08T05:25:45;13.32;;;4.93;;
22287;SDS011;11312;51.464;6.968;2024-03-08T05:28:14;9.85;;;4.15;;
22287;SDS011;11312;51.464;6.968;2024-03-08T05:30:39;8.05;;;3.15;;
22287;SDS011;11312;51.464;6.968;2024-03-08T05:33:06;9.75;;;4.80;;
22287;SDS011;11312;51.464;6.968;2024-03-08T05:35:35;8.32;;;3.08;;
22287;SDS011;11312;51.464;6.968;2024-03-08T05:38:01;9.63;;;3.47;;
22287;SDS011;11312;51.464;6.968;2024-03-08T05:40:27;9.82;;;4.30;;
22287;SDS011;11312;51.464;6.968;2024-03-08T05:42:57;7.75;;;2.95;;
22287;SDS011;11312;51.464;6.968;2024-03-08T05:45:26;9.35;;;4.07;;
22287;SDS011;11312;51.464;6.968;2024-03-08T05:47:53;9.43;;;3.38;;
22287;SDS011;11312;51.464;6.968;2024-03-08T05:50:18;9.00;;;3.42;;
22287;SDS011;11312;51.464;6.968;2024-03-08T05:52:44;7.35;;;2.83;;
22287;SDS011;11312;51.464;6.968;2024-03-08T05:55:10;8.77;;;3.95;;
22287;SDS011;11312;51.464;6.968;2024-03-08T05:57:37;8.57;;;3.95;;
22287;SDS011;11312;51.464;6.968;2024-03-08T06:00:04;9.40;;;3.90;;
22287;SDS011;11312;51.464;6.968;2024-03-08T06:02:30;10.27;;;3.90;;
22287;SDS011;11312;51.464;6.968;2024-03-08T06:04:56;12.25;;;4.68;;
22287;SDS011;11312;51.464;6.968;2024-03-08T06:07:22;9.45;;;4.63;;
22287;SDS011;11312;51.464;6.968;2024-03-08T06:09:47;10.25;;;4.15;;
22287;SDS011;11312;51.464;6.968;2024-03-08T06:12:14;9.85;;;4.50;;
22287;SDS011;11312;51.464;6.968;2024-03-08T06:14:44;28.10;;;5.13;;
22287;SDS011;11312;51.464;6.968;2024-03-08T06:17:10;10.30;;;4.70;;
22287;SDS011;11312;51.464;6.968;2024-03-08T06:19:36;10.73;;;3.65;;
22287;SDS011;11312;51.464;6.968;2024-03-08T06:22:02;14.60;;;4.03;;
22287;SDS011;11312;51.464;6.968;2024-03-08T06:24:30;8.00;;;3.63;;
22287;SDS011;11312;51.464;6.968;2024-03-08T06:26:57;10.07;;;4.75;;
22287;SDS011;11312;51.464;6.968;2024-03-08T06:29:22;8.55;;;3.75;;
22287;SDS011;11312;51.464;6.968;2024-03-08T06:31:48;9.88;;;3.80;;
22287;SDS011;11312;51.464;6.968;2024-03-08T06:34:14;8.95;;;3.78;;
22287;SDS011;11312;51.464;6.968;2024-03-08T06:36:40;10.65;;;5.05;;
22287;SDS011;11312;51.464;6.968;2024-03-08T06:39:06;9.93;;;4.55;;
22287;SDS011;11312;51.464;6.968;2024-03-08T06:41:36;13.27;;;5.35;;
22287;SDS011;11312;51.464;6.968;2024-03-08T06:44:01;9.02;;;3.97;;
22287;SDS011;11312;51.464;6.968;2024-03-08T06:46:27;12.63;;;4.63;;
22287;SDS011;11312;51.464;6.968;2024-03-08T06:48:53;8.90;;;3.75;;
22287;SDS011;11312;51.464;6.968;2024-03-08T06:51:19;9.55;;;3.67;;
22287;SDS011;11312;51.464;6.968;2024-03-08T06:53:44;9.38;;;4.20;;
22287;SDS011;11312;51.464;6.968;2024-03-08T06:56:10;8.27;;;3.45;;
22287;SDS011;11312;51.464;6.968;2024-03-08T06:58:36;8.23;;;3.65;;
22287;SDS011;11312;51.464;6.968;2024-03-08T07:01:02;10.05;;;4.53;;
22287;SDS011;11312;51.464;6.968;2024-03-08T07:03:32;7.80;;;3.22;;
22287;SDS011;11312;51.464;6.968;2024-03-08T07:05:58;10.32;;;5.22;;
22287;SDS011;11312;51.464;6.968;2024-03-08T07:08:24;13.52;;;4.65;;
22287;SDS011;11312;51.464;6.968;2024-03-08T07:10:49;7.97;;;3.20;;
22287;SDS011;11312;51.464;6.968;2024-03-08T07:13:15;7.03;;;3.20;;
22287;SDS011;11312;51.464;6.968;2024-03-08T07:15:42;11.73;;;3.83;;
22287;SDS011;11312;51.464;6.968;2024-03-08T07:18:08;10.15;;;3.75;;
22287;SDS011;11312;51.464;6.968;2024-03-08T07:20:39;6.47;;;2.65;;
22287;SDS011;11312;51.464;6.968;2024-03-08T07:23:05;10.88;;;4.75;;
22287;SDS011;11312;51.464;6.968;2024-03-08T07:25:43;9.13;;;4.20;;
22287;SDS011;11312;51.464;6.968;2024-03-08T07:28:09;8.00;;;3.60;;
22287;SDS011;11312;51.464;6.968;2024-03-08T07:30:35;10.80;;;5.28;;
22287;SDS011;11312;51.464;6.968;2024-03-08T07:33:10;9.65;;;4.70;;
22287;SDS011;11312;51.464;6.968;2024-03-08T07:35:41;9.00;;;4.70;;
22287;SDS011;11312;51.464;6.968;2024-03-08T07:38:10;9.13;;;3.63;;
22287;SDS011;11312;51.464;6.968;2024-03-08T07:40:37;8.80;;;3.63;;
22287;SDS011;11312;51.464;6.968;2024-03-08T07:43:06;11.10;;;5.38;;
22287;SDS011;11312;51.464;6.968;2024-03-08T07:45:32;8.90;;;3.83;;
22287;SDS011;11312;51.464;6.968;2024-03-08T07:47:58;8.43;;;4.18;;
22287;SDS011;11312;51.464;6.968;2024-03-08T07:50:24;8.90;;;3.90;;
22287;SDS011;11312;51.464;6.968;2024-03-08T07:52:49;7.25;;;3.20;;
22287;SDS011;11312;51.464;6.968;2024-03-08T07:55:15;8.10;;;3.40;;
22287;SDS011;11312;51.464;6.968;2024-03-08T07:57:41;8.65;;;3.20;;
22287;SDS011;11312;51.464;6.968;2024-03-08T08:00:07;8.73;;;3.80;;
22287;SDS011;11312;51.464;6.968;2024-03-08T08:02:35;10.32;;;3.83;;
22287;SDS011;11312;51.464;6.968;2024-03-08T08:05:01;10.65;;;3.15;;
22287;SDS011;11312;51.464;6.968;2024-03-08T08:07:28;8.63;;;3.70;;
22287;SDS011;11312;51.464;6.968;2024-03-08T08:09:54;8.13;;;3.08;;
22287;SDS011;11312;51.464;6.968;2024-03-08T08:12:19;10.00;;;3.42;;
22287;SDS011;11312;51.464;6.968;2024-03-08T08:14:45;6.45;;;3.03;;
22287;SDS011;11312;51.464;6.968;2024-03-08T08:17:11;9.48;;;3.70;;
22287;SDS011;11312;51.464;6.968;2024-03-08T08:19:37;6.10;;;2.47;;
22287;SDS011;11312;51.464;6.968;2024-03-08T08:22:05;7.05;;;3.22;;
22287;SDS011;11312;51.464;6.968;2024-03-08T08:24:30;7.85;;;3.42;;
22287;SDS011;11312;51.464;6.968;2024-03-08T08:26:56;4.68;;;2.00;;
22287;SDS011;11312;51.464;6.968;2024-03-08T08:29:21;7.30;;;2.63;;
22287;SDS011;11312;51.464;6.968;2024-03-08T08:31:47;7.55;;;2.80;;
22287;SDS011;11312;51.464;6.968;2024-03-08T08:34:15;7.63;;;2.85;;
22287;SDS011;11312;51.464;6.968;2024-03-08T08:36:44;7.65;;;3.17;;
22287;SDS011;11312;51.464;6.968;2024-03-08T08:39:10;8.60;;;3.70;;
22287;SDS011;11312;51.464;6.968;2024-03-08T08:41:38;8.57;;;3.47;;
22287;SDS011;11312;51.464;6.968;2024-03-08T08:44:06;9.40;;;3.45;;
22287;SDS011;11312;51.464;6.968;2024-03-08T08:46:35;6.80;;;2.70;;
22287;SDS011;11312;51.464;6.968;2024-03-08T08:49:03;13.73;;;4.88;;
22287;SDS011;11312;51.464;6.968;2024-03-08T08:51:29;7.10;;;3.00;;
22287;SDS011;11312;51.464;6.968;2024-03-08T08:53:55;7.40;;;2.33;;
22287;SDS011;11312;51.464;6.968;2024-03-08T08:56:21;8.90;;;3.45;;
22287;SDS011;11312;51.464;6.968;2024-03-08T08:58:47;7.22;;;3.17;;
22287;SDS011;11312;51.464;6.968;2024-03-08T09:01:14;9.13;;;3.05;;
22287;SDS011;11312;51.464;6.968;2024-03-08T09:03:40;8.90;;;2.88;;
22287;SDS011;11312;51.464;6.968;2024-03-08T09:06:06;11.52;;;2.80;;
22287;SDS011;11312;51.464;6.968;2024-03-08T09:08:35;5.05;;;2.85;;
22287;SDS011;11312;51.464;6.968;2024-03-08T09:11:01;7.32;;;2.95;;
22287;SDS011;11312;51.464;6.968;2024-03-08T09:13:27;5.85;;;2.75;;
22287;SDS011;11312;51.464;6.968;2024-03-08T09:15:53;7.00;;;2.83;;
22287;SDS011;11312;51.464;6.968;2024-03-08T09:18:18;5.70;;;2.15;;
22287;SDS011;11312;51.464;6.968;2024-03-08T09:20:44;4.40;;;1.88;;
22287;SDS011;11312;51.464;6.968;2024-03-08T09:23:10;7.07;;;3.08;;
22287;SDS011;11312;51.464;6.968;2024-03-08T09:25:35;9.85;;;3.65;;
22287;SDS011;11312;51.464;6.968;2024-03-08T09:28:01;11.38;;;3.85;;
22287;SDS011;11312;51.464;6.968;2024-03-08T09:30:27;8.18;;;3.55;;
22287;SDS011;11312;51.464;6.968;2024-03-08T09:32:52;9.73;;;2.58;;
22287;SDS011;11312;51.464;6.968;2024-03-08T09:35:19;9.95;;;3.10;;
22287;SDS011;11312;51.464;6.968;2024-03-08T09:37:44;6.68;;;2.30;;
22287;SDS011;11312;51.464;6.968;2024-03-08T09:40:13;6.55;;;2.60;;
22287;SDS011;11312;51.464;6.968;2024-03-08T09:42:40;9.18;;;3.25;;
22287;SDS011;11312;51.464;6.968;2024-03-08T09:45:10;7.30;;;2.72;;
22287;SDS011;11312;51.464;6.968;2024-03-08T09:47:43;8.05;;;3.15;;
22287;SDS011;11312;51.464;6.968;2024-03-08T09:50:10;5.80;;;2.42;;
22287;SDS011;11312;51.464;6.968;2024-03-08T09:52:40;6.63;;;2.28;;
22287;SDS011;11312;51.464;6.968;2024-03-08T09:55:09;5.07;;;2.22;;
22287;SDS011;11312;51.464;6.968;2024-03-08T09:57:38;8.50;;;3.75;;
22287;SDS011;11312;51.464;6.968;2024-03-08T10:00:05;6.43;;;1.92;;
22287;SDS011;11312;51.464;6.968;2024-03-08T10:02:45;7.97;;;2.85;;
22287;SDS011;11312;51.464;6.968;2024-03-08T10:05:12;5.38;;;2.35;;
22287;SDS011;11312;51.464;6.968;2024-03-08T10:07:38;5.95;;;2.15;;
22287;SDS011;11312;51.464;6.968;2024-03-08T10:10:04;6.95;;;2.97;;
22287;SDS011;11312;51.464;6.968;2024-03-08T10:12:30;3.42;;;1.77;;
22287;SDS011;11312;51.464;6.968;2024-03-08T10:14:58;7.57;;;2.35;;
22287;SDS011;11312;51.464;6.968;2024-03-08T10:17:24;4.75;;;2.33;;
22287;SDS011;11312;51.464;6.968;2024-03-08T10:19:50;5.78;;;2.30;;
22287;SDS011;11312;51.464;6.968;2024-03-08T10:22:17;8.32;;;3.25;;
22287;SDS011;11312;51.464;6.968;2024-03-08T10:24:44;8.15;;;2.70;;
22287;SDS011;11312;51.464;6.968;2024-03-08T10:27:13;6.40;;;2.70;;
22287;SDS011;11312;51.464;6.968;2024-03-08T10:29:41;4.70;;;1.90;;
22287;SDS011;11312;51.464;6.968;2024-03-08T10:32:09;2.97;;;1.52;;
22287;SDS011;11312;51.464;6.968;2024-03-08T10:34:35;6.15;;;1.77;;
22287;SDS011;11312;51.464;6.968;2024-03-08T10:37:04;6.70;;;2.30;;
22287;SDS011;11312;51.464;6.968;2024-03-08T10:39:36;2.55;;;1.65;;
22287;SDS011;11312;51.464;6.968;2024-03-08T10:42:03;4.25;;;1.67;;
22287;SDS011;11312;51.464;6.968;2024-03-08T10:49:31;4.30;;;1.75;;
22287;SDS011;11312;51.464;6.968;2024-03-08T10:52:04;6.13;;;2.28;;
22287;SDS011;11312;51.464;6.968;2024-03-08T10:54:33;8.85;;;2.70;;
22287;SDS011;11312;51.464;6.968;2024-03-08T10:57:02;2.58;;;1.42;;
22287;SDS011;11312;51.464;6.968;2024-03-08T10:59:30;8.38;;;2.53;;
22287;SDS011;11312;51.464;6.968;2024-03-08T11:01:58;5.32;;;2.20;;
22287;SDS011;11312;51.464;6.968;2024-03-08T11:04:25;4.35;;;1.70;;
22287;SDS011;11312;51.464;6.968;2024-03-08T11:06:51;4.85;;;1.77;;
22287;SDS011;11312;51.464;6.968;2024-03-08T11:09:30;3.50;;;1.60;;
22287;SDS011;11312;51.464;6.968;2024-03-08T11:14:47;3.10;;;1.20;;
22287;SDS011;11312;51.464;6.968;2024-03-08T11:18:01;9.05;;;2.78;;
22287;SDS011;11312;51.464;6.968;2024-03-08T11:20:16;4.85;;;1.88;;
22287;SDS011;11312;51.464;6.968;2024-03-08T11:22:49;5.40;;;2.33;;
22287;SDS011;11312;51.464;6.968;2024-03-08T11:30:45;5.50;;;2.03;;
22287;SDS011;11312;51.464;6.968;2024-03-08T11:33:34;8.68;;;3.22;;
22287;SDS011;11312;51.464;6.968;2024-03-08T11:38:49;6.20;;;2.17;;
22287;SDS011;11312;51.464;6.968;2024-03-08T11:41:18;9.90;;;2.28;;
22287;SDS011;11312;51.464;6.968;2024-03-08T11:43:46;4.75;;;2.22;;
22287;SDS011;11312;51.464;6.968;2024-03-08T11:46:12;6.93;;;2.13;;
22287;SDS011;11312;51.464;6.968;2024-03-08T11:48:40;7.30;;;2.50;;
22287;SDS011;11312;51.464;6.968;2024-03-08T11:51:07;6.95;;;2.80;;
22287;SDS011;11312;51.464;6.968;2024-03-08T11:53:40;4.28;;;1.75;;
22287;SDS011;11312;51.464;6.968;2024-03-08T11:56:09;8.48;;;2.33;;
22287;SDS011;11312;51.464;6.968;2024-03-08T11:58:39;4.45;;;1.60;;
22287;SDS011;11312;51.464;6.968;2024-03-08T12:01:06;5.18;;;2.03;;
22287;SDS011;11312;51.464;6.968;2024-03-08T12:03:41;6.65;;;2.10;;
22287;SDS011;11312;51.464;6.968;2024-03-08T12:06:10;9.48;;;3.55;;
22287;SDS011;11312;51.464;6.968;2024-03-08T12:08:38;10.02;;;2.50;;
22287;SDS011;11312;51.464;6.968;2024-03-08T12:11:04;3.80;;;1.52;;
22287;SDS011;11312;51.464;6.968;2024-03-08T12:13:30;3.90;;;1.42;;
22287;SDS011;11312;51.464;6.968;2024-03-08T12:15:59;4.07;;;1.50;;
22287;SDS011;11312;51.464;6.968;2024-03-08T12:18:25;4.90;;;1.95;;
22287;SDS011;11312;51.464;6.968;2024-03-08T12:21:03;7.07;;;2.47;;
22287;SDS011;11312;51.464;6.968;2024-03-08T12:23:33;3.08;;;1.50;;
22287;SDS011;11312;51.464;6.968;2024-03-08T12:26:11;5.18;;;1.67;;
22287;SDS011;11312;51.464;6.968;2024-03-08T12:28:41;4.07;;;1.33;;
22287;SDS011;11312;51.464;6.968;2024-03-08T12:31:12;4.25;;;1.80;;
22287;SDS011;11312;51.464;6.968;2024-03-08T12:33:52;10.00;;;2.90;;
22287;SDS011;11312;51.464;6.968;2024-03-08T12:36:21;3.20;;;1.33;;
22287;SDS011;11312;51.464;6.968;2024-03-08T12:38:47;5.03;;;1.85;;
22287;SDS011;11312;51.464;6.968;2024-03-08T12:41:13;2.53;;;1.23;;
22287;SDS011;11312;51.464;6.968;2024-03-08T12:43:40;4.00;;;1.83;;
22287;SDS011;11312;51.464;6.968;2024-03-08T12:46:06;3.67;;;1.48;;
22287;SDS011;11312;51.464;6.968;2024-03-08T12:48:34;3.92;;;1.52;;
22287;SDS011;11312;51.464;6.968;2024-03-08T12:51:00;5.15;;;1.98;;
22287;SDS011;11312;51.464;6.968;2024-03-08T12:53:26;8.05;;;2.13;;
22287;SDS011;11312;51.464;6.968;2024-03-08T12:55:54;4.18;;;1.77;;
22287;SDS011;11312;51.464;6.968;2024-03-08T12:58:21;5.53;;;1.88;;
22287;SDS011;11312;51.464;6.968;2024-03-08T13:00:47;4.20;;;1.30;;
22287;SDS011;11312;51.464;6.968;2024-03-08T13:03:14;6.78;;;2.33;;
22287;SDS011;11312;51.464;6.968;2024-03-08T13:05:39;4.07;;;1.75;;
22287;SDS011;11312;51.464;6.968;2024-03-08T13:08:07;4.22;;;1.65;;
22287;SDS011;11312;51.464;6.968;2024-03-08T13:10:41;1.63;;;0.75;;
22287;SDS011;11312;51.464;6.968;2024-03-08T13:13:08;1.88;;;0.77;;
22287;SDS011;11312;51.464;6.968;2024-03-08T13:15:37;1.38;;;0.98;;
22287;SDS011;11312;51.464;6.968;2024-03-08T13:18:05;6.55;;;1.85;;
22287;SDS011;11312;51.464;6.968;2024-03-08T13:20:33;3.05;;;1.45;;
22287;SDS011;11312;51.464;6.968;2024-03-08T13:23:02;3.03;;;1.23;;
22287;SDS011;11312;51.464;6.968;2024-03-08T13:25:33;2.75;;;1.08;;
22287;SDS011;11312;51.464;6.968;2024-03-08T13:27:59;1.83;;;0.90;;
22287;SDS011;11312;51.464;6.968;2024-03-08T13:30:25;2.85;;;1.27;;
22287;SDS011;11312;51.464;6.968;2024-03-08T13:32:54;1.55;;;0.90;;
22287;SDS011;11312;51.464;6.968;2024-03-08T13:35:20;2.72;;;1.10;;
22287;SDS011;11312;51.464;6.968;2024-03-08T13:37:55;3.05;;;1.38;;
22287;SDS011;11312;51.464;6.968;2024-03-08T13:40:20;3.80;;;1.63;;
22287;SDS011;11312;51.464;6.968;2024-03-08T13:42:46;4.57;;;1.80;;
22287;SDS011;11312;51.464;6.968;2024-03-08T13:45:14;2.03;;;1.13;;
22287;SDS011;11312;51.464;6.968;2024-03-08T13:47:42;6.00;;;1.92;;
22287;SDS011;11312;51.464;6.968;2024-03-08T13:52:39;3.88;;;1.67;;
22287;SDS011;11312;51.464;6.968;2024-03-08T13:55:05;3.15;;;1.45;;
22287;SDS011;11312;51.464;6.968;2024-03-08T13:57:34;3.15;;;1.48;;
22287;SDS011;11312;51.464;6.968;2024-03-08T14:00:00;3.00;;;1.50;;
22287;SDS011;11312;51.464;6.968;2024-03-08T14:02:25;2.42;;;1.23;;
22287;SDS011;11312;51.464;6.968;2024-03-08T14:04:57;3.03;;;1.40;;
22287;SDS011;11312;51.464;6.968;2024-03-08T14:07:22;2.40;;;1.33;;
22287;SDS011;11312;51.464;6.968;2024-03-08T14:09:49;1.63;;;1.30;;
22287;SDS011;11312;51.464;6.968;2024-03-08T14:12:16;1.92;;;1.25;;
22287;SDS011;11312;51.464;6.968;2024-03-08T14:14:42;3.22;;;1.50;;
22287;SDS011;11312;51.464;6.968;2024-03-08T14:17:09;3.15;;;1.67;;
22287;SDS011;11312;51.464;6.968;2024-03-08T14:19:36;6.57;;;2.22;;
22287;SDS011;11312;51.464;6.968;2024-03-08T14:22:04;4.40;;;1.85;;
22287;SDS011;11312;51.464;6.968;2024-03-08T14:24:30;2.45;;;1.40;;
22287;SDS011;11312;51.464;6.968;2024-03-08T14:26:56;6.05;;;2.10;;
22287;SDS011;11312;51.464;6.968;2024-03-08T14:29:23;1.83;;;1.20;;
22287;SDS011;11312;51.464;6.968;2024-03-08T14:31:54;4.63;;;2.15;;
22287;SDS011;11312;51.464;6.968;2024-03-08T14:34:24;3.25;;;1.67;;
22287;SDS011;11312;51.464;6.968;2024-03-08T14:36:52;3.85;;;1.83;;
22287;SDS011;11312;51.464;6.968;2024-03-08T14:39:18;10.23;;;2.80;;
22287;SDS011;11312;51.464;6.968;2024-03-08T14:41:47;7.72;;;2.00;;
22287;SDS011;11312;51.464;6.968;2024-03-08T14:44:13;5.03;;;1.85;;
22287;SDS011;11312;51.464;6.968;2024-03-08T14:46:39;3.10;;;1.45;;
22287;SDS011;11312;51.464;6.968;2024-03-08T14:49:07;3.22;;;1.80;;
22287;SDS011;11312;51.464;6.968;2024-03-08T14:51:34;1.63;;;1.20;;
22287;SDS011;11312;51.464;6.968;2024-03-08T14:54:00;3.55;;;1.65;;
22287;SDS011;11312;51.464;6.968;2024-03-08T14:56:25;4.30;;;1.95;;
22287;SDS011;11312;51.464;6.968;2024-03-08T14:58:52;2.97;;;1.48;;
22287;SDS011;11312;51.464;6.968;2024-03-08T15:01:18;3.75;;;1.55;;
22287;SDS011;11312;51.464;6.968;2024-03-08T15:03:53;3.75;;;1.85;;